sensor_id;sensor_type;location;lat;lon;timestamp;P1;durP1;ratioP1;P2;durP2;ratioP2
54899;SDS011;40801;41.924;25.562;2022-12-18T00:01:13;51.60;;;41.17;;
54899;SDS011;40801;41.924;25.562;2022-12-18T00:03:43;44.00;;;38.40;;
54899;SDS011;40801;41.924;25.562;2022-12-18T00:06:09;44.05;;;37.63;;
54899;SDS011;40801;41.924;25.562;2022-12-18T00:08:35;50.67;;;40.97;;
54899;SDS011;40801;41.924;25.562;2022-12-18T00:11:04;49.03;;;41.20;;
54899;SDS011;40801;41.924;25.562;2022-12-18T00:13:30;54.88;;;44.00;;
54899;SDS011;40801;41.924;25.562;2022-12-18T00:16:00;53.08;;;45.38;;
54899;SDS011;40801;41.924;25.562;2022-12-18T00:18:30;53.97;;;45.95;;
54899;SDS011;40801;41.924;25.562;2022-12-18T00:20:59;53.75;;;46.08;;
54899;SDS011;40801;41.924;25.562;2022-12-18T00:23:26;48.33;;;41.50;;
54899;SDS011;40801;41.924;25.562;2022-12-18T00:25:52;51.50;;;45.60;;
54899;SDS011;40801;41.924;25.562;2022-12-18T00:28:18;43.10;;;38.58;;
54899;SDS011;40801;41.924;25.562;2022-12-18T00:30:44;45.33;;;40.30;;
54899;SDS011;40801;41.924;25.562;2022-12-18T00:33:09;48.97;;;39.53;;
54899;SDS011;40801;41.924;25.562;2022-12-18T00:35:34;48.90;;;43.42;;
54899;SDS011;40801;41.924;25.562;2022-12-18T00:38:00;50.75;;;43.53;;
54899;SDS011;40801;41.924;25.562;2022-12-18T00:40:25;50.55;;;44.50;;
54899;SDS011;40801;41.924;25.562;2022-12-18T00:42:51;50.15;;;43.50;;
54899;SDS011;40801;41.924;25.562;2022-12-18T00:45:29;52.15;;;45.00;;
54899;SDS011;40801;41.924;25.562;2022-12-18T00:47:55;49.58;;;41.95;;
54899;SDS011;40801;41.924;25.562;2022-12-18T00:50:22;48.90;;;42.28;;
54899;SDS011;40801;41.924;25.562;2022-12-18T00:52:49;52.83;;;43.97;;
54899;SDS011;40801;41.924;25.562;2022-12-18T00:55:15;44.22;;;39.60;;
54899;SDS011;40801;41.924;25.562;2022-12-18T00:57:41;43.25;;;35.15;;
54899;SDS011;40801;41.924;25.562;2022-12-18T01:00:07;51.90;;;45.83;;
54899;SDS011;40801;41.924;25.562;2022-12-18T01:02:34;51.20;;;43.97;;
54899;SDS011;40801;41.924;25.562;2022-12-18T01:05:00;45.63;;;39.20;;
54899;SDS011;40801;41.924;25.562;2022-12-18T01:07:26;36.72;;;32.55;;
54899;SDS011;40801;41.924;25.562;2022-12-18T01:09:51;37.38;;;31.20;;
54899;SDS011;40801;41.924;25.562;2022-12-18T01:12:17;35.05;;;30.88;;
54899;SDS011;40801;41.924;25.562;2022-12-18T01:14:42;40.45;;;32.80;;
54899;SDS011;40801;41.924;25.562;2022-12-18T01:17:07;33.30;;;28.98;;
54899;SDS011;40801;41.924;25.562;2022-12-18T01:19:33;37.38;;;31.98;;
54899;SDS011;40801;41.924;25.562;2022-12-18T01:21:59;36.40;;;32.15;;
54899;SDS011;40801;41.924;25.562;2022-12-18T01:24:24;33.95;;;29.40;;
54899;SDS011;40801;41.924;25.562;2022-12-18T01:26:50;38.05;;;31.08;;
54899;SDS011;40801;41.924;25.562;2022-12-18T01:29:15;33.83;;;30.08;;
54899;SDS011;40801;41.924;25.562;2022-12-18T01:31:41;33.92;;;29.75;;
54899;SDS011;40801;41.924;25.562;2022-12-18T01:34:06;36.65;;;30.70;;
54899;SDS011;40801;41.924;25.562;2022-12-18T01:36:33;42.35;;;37.67;;
54899;SDS011;40801;41.924;25.562;2022-12-18T01:39:02;41.53;;;34.80;;
54899;SDS011;40801;41.924;25.562;2022-12-18T01:41:30;38.15;;;31.40;;
54899;SDS011;40801;41.924;25.562;2022-12-18T01:47:27;39.67;;;35.38;;
54899;SDS011;40801;41.924;25.562;2022-12-18T01:49:57;40.17;;;34.78;;
54899;SDS011;40801;41.924;25.562;2022-12-18T01:52:29;39.15;;;33.63;;
54899;SDS011;40801;41.924;25.562;2022-12-18T01:54:57;34.88;;;30.75;;
54899;SDS011;40801;41.924;25.562;2022-12-18T01:57:24;34.58;;;28.88;;
54899;SDS011;40801;41.924;25.562;2022-12-18T01:59:52;41.53;;;30.63;;
54899;SDS011;40801;41.924;25.562;2022-12-18T02:02:19;44.38;;;36.08;;
54899;SDS011;40801;41.924;25.562;2022-12-18T02:04:46;41.35;;;33.60;;
54899;SDS011;40801;41.924;25.562;2022-12-18T02:07:17;41.10;;;33.63;;
54899;SDS011;40801;41.924;25.562;2022-12-18T02:09:51;38.75;;;32.97;;
54899;SDS011;40801;41.924;25.562;2022-12-18T02:12:42;40.22;;;33.30;;
54899;SDS011;40801;41.924;25.562;2022-12-18T02:15:19;56.50;;;47.60;;
54899;SDS011;40801;41.924;25.562;2022-12-18T02:18:01;39.53;;;34.00;;
54899;SDS011;40801;41.924;25.562;2022-12-18T02:28:24;37.90;;;33.28;;
54899;SDS011;40801;41.924;25.562;2022-12-18T02:30:54;36.00;;;30.75;;
54899;SDS011;40801;41.924;25.562;2022-12-18T02:33:24;35.70;;;31.77;;
54899;SDS011;40801;41.924;25.562;2022-12-18T02:35:52;39.53;;;31.83;;
54899;SDS011;40801;41.924;25.562;2022-12-18T02:38:20;38.63;;;30.48;;
54899;SDS011;40801;41.924;25.562;2022-12-18T02:40:46;32.60;;;28.67;;
54899;SDS011;40801;41.924;25.562;2022-12-18T02:43:14;33.00;;;29.48;;
54899;SDS011;40801;41.924;25.562;2022-12-18T02:45:47;31.33;;;27.50;;
54899;SDS011;40801;41.924;25.562;2022-12-18T02:48:16;31.85;;;27.92;;
54899;SDS011;40801;41.924;25.562;2022-12-18T02:50:52;33.78;;;29.13;;
54899;SDS011;40801;41.924;25.562;2022-12-18T02:56:49;36.92;;;32.13;;
54899;SDS011;40801;41.924;25.562;2022-12-18T02:59:00;39.60;;;33.35;;
54899;SDS011;40801;41.924;25.562;2022-12-18T03:01:55;36.67;;;31.85;;
54899;SDS011;40801;41.924;25.562;2022-12-18T03:04:25;39.53;;;33.70;;
54899;SDS011;40801;41.924;25.562;2022-12-18T03:07:08;40.63;;;33.20;;
54899;SDS011;40801;41.924;25.562;2022-12-18T03:09:41;33.92;;;30.40;;
54899;SDS011;40801;41.924;25.562;2022-12-18T03:12:14;34.80;;;28.77;;
54899;SDS011;40801;41.924;25.562;2022-12-18T03:17:35;37.10;;;31.27;;
54899;SDS011;40801;41.924;25.562;2022-12-18T03:20:06;38.53;;;32.20;;
54899;SDS011;40801;41.924;25.562;2022-12-18T03:22:35;33.00;;;28.92;;
54899;SDS011;40801;41.924;25.562;2022-12-18T03:25:04;36.92;;;31.92;;
54899;SDS011;40801;41.924;25.562;2022-12-18T03:30:04;29.58;;;26.38;;
54899;SDS011;40801;41.924;25.562;2022-12-18T03:32:36;33.53;;;29.88;;
54899;SDS011;40801;41.924;25.562;2022-12-18T03:35:07;32.60;;;29.10;;
54899;SDS011;40801;41.924;25.562;2022-12-18T03:37:36;38.15;;;31.75;;
54899;SDS011;40801;41.924;25.562;2022-12-18T03:40:03;37.40;;;31.58;;
54899;SDS011;40801;41.924;25.562;2022-12-18T03:42:32;38.67;;;32.60;;
54899;SDS011;40801;41.924;25.562;2022-12-18T03:50:29;30.17;;;27.02;;
54899;SDS011;40801;41.924;25.562;2022-12-18T03:55:49;36.20;;;32.28;;
54899;SDS011;40801;41.924;25.562;2022-12-18T03:58:17;39.70;;;35.40;;
54899;SDS011;40801;41.924;25.562;2022-12-18T04:00:45;41.20;;;35.95;;
54899;SDS011;40801;41.924;25.562;2022-12-18T04:03:12;31.48;;;28.08;;
54899;SDS011;40801;41.924;25.562;2022-12-18T04:05:39;34.22;;;29.33;;
54899;SDS011;40801;41.924;25.562;2022-12-18T04:08:08;32.45;;;27.02;;
54899;SDS011;40801;41.924;25.562;2022-12-18T04:10:34;32.53;;;26.38;;
54899;SDS011;40801;41.924;25.562;2022-12-18T04:12:59;31.58;;;27.95;;
54899;SDS011;40801;41.924;25.562;2022-12-18T04:15:24;29.67;;;26.33;;
54899;SDS011;40801;41.924;25.562;2022-12-18T04:17:50;34.42;;;28.40;;
54899;SDS011;40801;41.924;25.562;2022-12-18T04:20:16;30.63;;;27.35;;
54899;SDS011;40801;41.924;25.562;2022-12-18T04:22:42;32.78;;;29.02;;
54899;SDS011;40801;41.924;25.562;2022-12-18T04:25:08;29.80;;;26.60;;
54899;SDS011;40801;41.924;25.562;2022-12-18T04:27:34;37.60;;;29.38;;
54899;SDS011;40801;41.924;25.562;2022-12-18T04:29:59;29.52;;;26.48;;
54899;SDS011;40801;41.924;25.562;2022-12-18T04:32:25;31.30;;;27.92;;
54899;SDS011;40801;41.924;25.562;2022-12-18T04:34:50;34.15;;;28.27;;
54899;SDS011;40801;41.924;25.562;2022-12-18T04:37:16;31.40;;;27.02;;
54899;SDS011;40801;41.924;25.562;2022-12-18T04:39:41;32.08;;;28.77;;
54899;SDS011;40801;41.924;25.562;2022-12-18T04:42:06;36.28;;;32.28;;
54899;SDS011;40801;41.924;25.562;2022-12-18T04:44:32;30.35;;;27.00;;
54899;SDS011;40801;41.924;25.562;2022-12-18T04:46:57;31.13;;;27.58;;
54899;SDS011;40801;41.924;25.562;2022-12-18T04:49:23;32.47;;;29.13;;
54899;SDS011;40801;41.924;25.562;2022-12-18T04:51:48;31.35;;;27.83;;
54899;SDS011;40801;41.924;25.562;2022-12-18T04:54:13;29.58;;;26.52;;
54899;SDS011;40801;41.924;25.562;2022-12-18T04:56:39;29.25;;;26.27;;
54899;SDS011;40801;41.924;25.562;2022-12-18T04:59:04;33.20;;;29.70;;
54899;SDS011;40801;41.924;25.562;2022-12-18T05:01:30;31.55;;;28.20;;
54899;SDS011;40801;41.924;25.562;2022-12-18T05:03:55;31.13;;;27.55;;
54899;SDS011;40801;41.924;25.562;2022-12-18T05:06:21;32.25;;;28.67;;
54899;SDS011;40801;41.924;25.562;2022-12-18T05:08:46;31.80;;;28.48;;
54899;SDS011;40801;41.924;25.562;2022-12-18T05:11:13;32.58;;;28.83;;
54899;SDS011;40801;41.924;25.562;2022-12-18T05:13:43;36.20;;;31.17;;
54899;SDS011;40801;41.924;25.562;2022-12-18T05:16:09;39.00;;;33.17;;
54899;SDS011;40801;41.924;25.562;2022-12-18T05:18:35;38.55;;;32.20;;
54899;SDS011;40801;41.924;25.562;2022-12-18T05:21:01;34.85;;;30.55;;
54899;SDS011;40801;41.924;25.562;2022-12-18T05:23:27;35.75;;;30.88;;
54899;SDS011;40801;41.924;25.562;2022-12-18T05:25:56;32.80;;;29.33;;
54899;SDS011;40801;41.924;25.562;2022-12-18T05:28:24;41.20;;;35.80;;
54899;SDS011;40801;41.924;25.562;2022-12-18T05:30:51;35.78;;;31.55;;
54899;SDS011;40801;41.924;25.562;2022-12-18T05:33:18;32.95;;;29.42;;
54899;SDS011;40801;41.924;25.562;2022-12-18T05:35:55;39.20;;;33.60;;
54899;SDS011;40801;41.924;25.562;2022-12-18T05:38:23;36.03;;;32.17;;
54899;SDS011;40801;41.924;25.562;2022-12-18T05:40:50;36.65;;;30.80;;
54899;SDS011;40801;41.924;25.562;2022-12-18T05:43:16;33.92;;;30.10;;
54899;SDS011;40801;41.924;25.562;2022-12-18T05:45:42;43.08;;;33.75;;
54899;SDS011;40801;41.924;25.562;2022-12-18T05:48:08;43.17;;;35.92;;
54899;SDS011;40801;41.924;25.562;2022-12-18T05:50:37;40.53;;;33.58;;
54899;SDS011;40801;41.924;25.562;2022-12-18T05:53:04;38.17;;;32.20;;
54899;SDS011;40801;41.924;25.562;2022-12-18T05:55:34;45.70;;;40.70;;
54899;SDS011;40801;41.924;25.562;2022-12-18T05:58:01;46.38;;;41.30;;
54899;SDS011;40801;41.924;25.562;2022-12-18T06:00:27;42.97;;;37.33;;
54899;SDS011;40801;41.924;25.562;2022-12-18T06:02:54;56.90;;;50.67;;
54899;SDS011;40801;41.924;25.562;2022-12-18T06:05:19;39.42;;;35.28;;
54899;SDS011;40801;41.924;25.562;2022-12-18T06:07:45;45.45;;;40.55;;
54899;SDS011;40801;41.924;25.562;2022-12-18T06:10:10;48.72;;;41.53;;
54899;SDS011;40801;41.924;25.562;2022-12-18T06:12:36;41.45;;;35.80;;
54899;SDS011;40801;41.924;25.562;2022-12-18T06:15:02;39.58;;;34.35;;
54899;SDS011;40801;41.924;25.562;2022-12-18T06:17:31;37.83;;;33.25;;
54899;SDS011;40801;41.924;25.562;2022-12-18T06:19:57;33.22;;;29.73;;
54899;SDS011;40801;41.924;25.562;2022-12-18T06:22:23;35.20;;;29.77;;
54899;SDS011;40801;41.924;25.562;2022-12-18T06:24:49;36.85;;;31.13;;
54899;SDS011;40801;41.924;25.562;2022-12-18T06:27:14;44.33;;;35.75;;
54899;SDS011;40801;41.924;25.562;2022-12-18T06:29:40;35.60;;;29.38;;
54899;SDS011;40801;41.924;25.562;2022-12-18T06:32:06;34.33;;;30.40;;
54899;SDS011;40801;41.924;25.562;2022-12-18T06:34:31;27.98;;;24.95;;
54899;SDS011;40801;41.924;25.562;2022-12-18T06:36:57;29.75;;;26.52;;
54899;SDS011;40801;41.924;25.562;2022-12-18T06:39:23;27.60;;;24.63;;
54899;SDS011;40801;41.924;25.562;2022-12-18T06:41:48;26.48;;;23.75;;
54899;SDS011;40801;41.924;25.562;2022-12-18T06:44:14;26.73;;;23.42;;
54899;SDS011;40801;41.924;25.562;2022-12-18T06:46:39;25.02;;;22.55;;
54899;SDS011;40801;41.924;25.562;2022-12-18T06:49:04;26.33;;;23.70;;
54899;SDS011;40801;41.924;25.562;2022-12-18T06:51:30;26.10;;;23.52;;
54899;SDS011;40801;41.924;25.562;2022-12-18T06:53:55;22.10;;;19.77;;
54899;SDS011;40801;41.924;25.562;2022-12-18T06:56:21;20.63;;;18.73;;
54899;SDS011;40801;41.924;25.562;2022-12-18T06:58:46;21.17;;;19.13;;
54899;SDS011;40801;41.924;25.562;2022-12-18T07:01:12;18.90;;;16.92;;
54899;SDS011;40801;41.924;25.562;2022-12-18T07:03:39;18.52;;;16.63;;
54899;SDS011;40801;41.924;25.562;2022-12-18T07:06:05;18.85;;;16.95;;
54899;SDS011;40801;41.924;25.562;2022-12-18T07:08:31;19.50;;;17.38;;
54899;SDS011;40801;41.924;25.562;2022-12-18T07:10:58;21.48;;;17.40;;
54899;SDS011;40801;41.924;25.562;2022-12-18T07:13:24;14.20;;;13.00;;
54899;SDS011;40801;41.924;25.562;2022-12-18T07:15:49;14.63;;;13.25;;
54899;SDS011;40801;41.924;25.562;2022-12-18T07:18:15;11.73;;;10.63;;
54899;SDS011;40801;41.924;25.562;2022-12-18T07:20:40;13.70;;;12.48;;
54899;SDS011;40801;41.924;25.562;2022-12-18T07:23:06;13.73;;;12.48;;
54899;SDS011;40801;41.924;25.562;2022-12-18T07:25:35;15.32;;;14.02;;
54899;SDS011;40801;41.924;25.562;2022-12-18T07:28:01;17.63;;;15.82;;
54899;SDS011;40801;41.924;25.562;2022-12-18T07:30:27;22.35;;;20.15;;
54899;SDS011;40801;41.924;25.562;2022-12-18T07:32:52;15.98;;;14.40;;
54899;SDS011;40801;41.924;25.562;2022-12-18T07:35:17;26.60;;;23.70;;
54899;SDS011;40801;41.924;25.562;2022-12-18T07:37:43;21.33;;;19.00;;
54899;SDS011;40801;41.924;25.562;2022-12-18T07:40:09;19.95;;;16.20;;
54899;SDS011;40801;41.924;25.562;2022-12-18T07:42:35;23.67;;;21.15;;
54899;SDS011;40801;41.924;25.562;2022-12-18T07:45:02;21.20;;;19.17;;
54899;SDS011;40801;41.924;25.562;2022-12-18T07:47:28;73.28;;;66.88;;
54899;SDS011;40801;41.924;25.562;2022-12-18T07:49:56;23.15;;;20.88;;
54899;SDS011;40801;41.924;25.562;2022-12-18T07:52:23;21.10;;;18.80;;
54899;SDS011;40801;41.924;25.562;2022-12-18T07:54:48;37.40;;;33.80;;
54899;SDS011;40801;41.924;25.562;2022-12-18T07:57:15;26.00;;;23.75;;
54899;SDS011;40801;41.924;25.562;2022-12-18T07:59:41;23.30;;;20.38;;
54899;SDS011;40801;41.924;25.562;2022-12-18T08:02:07;20.85;;;18.65;;
54899;SDS011;40801;41.924;25.562;2022-12-18T08:04:32;19.70;;;17.73;;
54899;SDS011;40801;41.924;25.562;2022-12-18T08:06:57;21.63;;;19.45;;
54899;SDS011;40801;41.924;25.562;2022-12-18T08:09:23;20.67;;;18.50;;
54899;SDS011;40801;41.924;25.562;2022-12-18T08:11:49;23.50;;;21.13;;
54899;SDS011;40801;41.924;25.562;2022-12-18T08:14:14;24.67;;;22.25;;
54899;SDS011;40801;41.924;25.562;2022-12-18T08:16:40;30.23;;;26.98;;
54899;SDS011;40801;41.924;25.562;2022-12-18T08:19:05;21.90;;;19.92;;
54899;SDS011;40801;41.924;25.562;2022-12-18T08:21:31;23.30;;;21.10;;
54899;SDS011;40801;41.924;25.562;2022-12-18T08:24:00;24.98;;;22.45;;
54899;SDS011;40801;41.924;25.562;2022-12-18T08:26:27;22.52;;;20.42;;
54899;SDS011;40801;41.924;25.562;2022-12-18T08:28:55;24.70;;;22.27;;
54899;SDS011;40801;41.924;25.562;2022-12-18T08:31:21;20.52;;;18.63;;
54899;SDS011;40801;41.924;25.562;2022-12-18T08:33:50;17.75;;;15.90;;
54899;SDS011;40801;41.924;25.562;2022-12-18T08:36:17;25.73;;;23.10;;
54899;SDS011;40801;41.924;25.562;2022-12-18T08:38:43;25.15;;;22.30;;
54899;SDS011;40801;41.924;25.562;2022-12-18T08:41:10;21.52;;;19.33;;
54899;SDS011;40801;41.924;25.562;2022-12-18T08:43:37;26.88;;;23.58;;
54899;SDS011;40801;41.924;25.562;2022-12-18T08:46:21;18.48;;;16.77;;
54899;SDS011;40801;41.924;25.562;2022-12-18T08:48:50;17.98;;;16.30;;
54899;SDS011;40801;41.924;25.562;2022-12-18T08:51:17;20.45;;;18.35;;
54899;SDS011;40801;41.924;25.562;2022-12-18T08:53:42;19.25;;;17.48;;
54899;SDS011;40801;41.924;25.562;2022-12-18T08:56:09;19.33;;;17.52;;
54899;SDS011;40801;41.924;25.562;2022-12-18T08:58:35;37.65;;;33.97;;
54899;SDS011;40801;41.924;25.562;2022-12-18T09:01:04;20.15;;;18.02;;
54899;SDS011;40801;41.924;25.562;2022-12-18T09:03:31;26.67;;;24.10;;
54899;SDS011;40801;41.924;25.562;2022-12-18T09:05:57;22.70;;;20.42;;
54899;SDS011;40801;41.924;25.562;2022-12-18T09:08:23;20.70;;;18.60;;
54899;SDS011;40801;41.924;25.562;2022-12-18T09:10:49;22.77;;;20.58;;
54899;SDS011;40801;41.924;25.562;2022-12-18T09:13:15;19.42;;;17.60;;
54899;SDS011;40801;41.924;25.562;2022-12-18T09:15:42;14.65;;;13.25;;
54899;SDS011;40801;41.924;25.562;2022-12-18T09:18:10;20.35;;;18.42;;
54899;SDS011;40801;41.924;25.562;2022-12-18T09:20:36;17.40;;;15.90;;
54899;SDS011;40801;41.924;25.562;2022-12-18T09:23:02;18.77;;;17.10;;
54899;SDS011;40801;41.924;25.562;2022-12-18T09:25:29;19.92;;;16.77;;
54899;SDS011;40801;41.924;25.562;2022-12-18T09:28:19;17.20;;;15.55;;
54899;SDS011;40801;41.924;25.562;2022-12-18T09:30:47;27.95;;;25.38;;
54899;SDS011;40801;41.924;25.562;2022-12-18T09:33:14;17.00;;;15.35;;
54899;SDS011;40801;41.924;25.562;2022-12-18T09:35:41;15.32;;;13.70;;
54899;SDS011;40801;41.924;25.562;2022-12-18T09:38:08;16.30;;;14.70;;
54899;SDS011;40801;41.924;25.562;2022-12-18T09:40:39;13.50;;;12.23;;
54899;SDS011;40801;41.924;25.562;2022-12-18T09:43:11;15.10;;;13.77;;
54899;SDS011;40801;41.924;25.562;2022-12-18T09:46:02;13.27;;;12.13;;
54899;SDS011;40801;41.924;25.562;2022-12-18T09:48:34;16.45;;;15.02;;
54899;SDS011;40801;41.924;25.562;2022-12-18T09:51:37;17.50;;;15.77;;
54899;SDS011;40801;41.924;25.562;2022-12-18T09:53:58;19.08;;;17.25;;
54899;SDS011;40801;41.924;25.562;2022-12-18T09:56:30;18.92;;;16.98;;
54899;SDS011;40801;41.924;25.562;2022-12-18T09:59:00;22.40;;;20.10;;
54899;SDS011;40801;41.924;25.562;2022-12-18T10:01:28;28.48;;;25.88;;
54899;SDS011;40801;41.924;25.562;2022-12-18T10:03:55;23.13;;;20.85;;
54899;SDS011;40801;41.924;25.562;2022-12-18T10:25:37;24.13;;;21.92;;
54899;SDS011;40801;41.924;25.562;2022-12-18T10:28:15;26.35;;;23.75;;
54899;SDS011;40801;41.924;25.562;2022-12-18T10:30:42;28.13;;;25.33;;
54899;SDS011;40801;41.924;25.562;2022-12-18T10:33:19;27.55;;;24.60;;
54899;SDS011;40801;41.924;25.562;2022-12-18T10:35:47;28.02;;;25.00;;
54899;SDS011;40801;41.924;25.562;2022-12-18T10:44:12;28.67;;;25.58;;
54899;SDS011;40801;41.924;25.562;2022-12-18T10:46:36;35.03;;;26.55;;
54899;SDS011;40801;41.924;25.562;2022-12-18T10:49:02;34.17;;;30.35;;
54899;SDS011;40801;41.924;25.562;2022-12-18T10:51:31;30.58;;;27.27;;
54899;SDS011;40801;41.924;25.562;2022-12-18T10:56:27;27.00;;;24.20;;
54899;SDS011;40801;41.924;25.562;2022-12-18T10:59:01;26.98;;;24.00;;
54899;SDS011;40801;41.924;25.562;2022-12-18T11:01:31;29.90;;;26.77;;
54899;SDS011;40801;41.924;25.562;2022-12-18T11:07:01;31.38;;;27.98;;
54899;SDS011;40801;41.924;25.562;2022-12-18T11:09:31;28.00;;;25.10;;
54899;SDS011;40801;41.924;25.562;2022-12-18T11:11:58;33.35;;;29.75;;
54899;SDS011;40801;41.924;25.562;2022-12-18T11:14:28;30.93;;;27.63;;
54899;SDS011;40801;41.924;25.562;2022-12-18T11:16:56;28.85;;;25.80;;
54899;SDS011;40801;41.924;25.562;2022-12-18T11:19:33;32.28;;;28.88;;
54899;SDS011;40801;41.924;25.562;2022-12-18T11:22:01;29.17;;;26.02;;
54899;SDS011;40801;41.924;25.562;2022-12-18T11:27:04;32.58;;;27.85;;
54899;SDS011;40801;41.924;25.562;2022-12-18T11:29:32;31.25;;;27.40;;
54899;SDS011;40801;41.924;25.562;2022-12-18T11:34:57;39.13;;;33.15;;
54899;SDS011;40801;41.924;25.562;2022-12-18T11:37:27;30.73;;;27.52;;
54899;SDS011;40801;41.924;25.562;2022-12-18T11:40:03;30.13;;;26.98;;
54899;SDS011;40801;41.924;25.562;2022-12-18T11:42:42;41.35;;;34.42;;
54899;SDS011;40801;41.924;25.562;2022-12-18T11:50:18;32.90;;;26.60;;
54899;SDS011;40801;41.924;25.562;2022-12-18T11:52:47;32.67;;;25.63;;
54899;SDS011;40801;41.924;25.562;2022-12-18T11:55:14;33.55;;;29.02;;
54899;SDS011;40801;41.924;25.562;2022-12-18T11:57:50;29.58;;;24.48;;
54899;SDS011;40801;41.924;25.562;2022-12-18T12:00:25;30.40;;;24.83;;
54899;SDS011;40801;41.924;25.562;2022-12-18T12:03:14;31.63;;;25.98;;
54899;SDS011;40801;41.924;25.562;2022-12-18T12:13:43;29.35;;;26.25;;
54899;SDS011;40801;41.924;25.562;2022-12-18T12:16:25;31.73;;;28.40;;
54899;SDS011;40801;41.924;25.562;2022-12-18T12:19:10;36.05;;;32.08;;
54899;SDS011;40801;41.924;25.562;2022-12-18T12:21:58;39.42;;;34.95;;
54899;SDS011;40801;41.924;25.562;2022-12-18T12:30:25;47.08;;;40.83;;
54899;SDS011;40801;41.924;25.562;2022-12-18T12:38:21;36.35;;;32.42;;
54899;SDS011;40801;41.924;25.562;2022-12-18T12:40:54;44.22;;;39.53;;
54899;SDS011;40801;41.924;25.562;2022-12-18T12:48:54;36.88;;;33.10;;
54899;SDS011;40801;41.924;25.562;2022-12-18T12:53:49;28.80;;;25.90;;
54899;SDS011;40801;41.924;25.562;2022-12-18T12:56:16;34.70;;;31.35;;
54899;SDS011;40801;41.924;25.562;2022-12-18T13:04:34;27.27;;;24.60;;
54899;SDS011;40801;41.924;25.562;2022-12-18T13:07:10;22.08;;;19.80;;
54899;SDS011;40801;41.924;25.562;2022-12-18T13:13:33;24.13;;;21.70;;
54899;SDS011;40801;41.924;25.562;2022-12-18T13:20:44;28.42;;;25.42;;
54899;SDS011;40801;41.924;25.562;2022-12-18T13:23:28;27.25;;;24.55;;
54899;SDS011;40801;41.924;25.562;2022-12-18T13:31:10;30.55;;;27.23;;
54899;SDS011;40801;41.924;25.562;2022-12-18T13:33:43;31.25;;;28.05;;
54899;SDS011;40801;41.924;25.562;2022-12-18T13:38:38;49.15;;;43.88;;
54899;SDS011;40801;41.924;25.562;2022-12-18T13:43:43;38.85;;;34.13;;
54899;SDS011;40801;41.924;25.562;2022-12-18T13:46:47;40.55;;;36.72;;
54899;SDS011;40801;41.924;25.562;2022-12-18T13:49:34;55.28;;;49.58;;
54899;SDS011;40801;41.924;25.562;2022-12-18T13:52:03;51.17;;;45.83;;
54899;SDS011;40801;41.924;25.562;2022-12-18T13:54:43;38.58;;;34.40;;
54899;SDS011;40801;41.924;25.562;2022-12-18T13:57:29;51.50;;;45.30;;
54899;SDS011;40801;41.924;25.562;2022-12-18T14:02:44;26.67;;;23.50;;
54899;SDS011;40801;41.924;25.562;2022-12-18T14:05:21;25.00;;;22.48;;
54899;SDS011;40801;41.924;25.562;2022-12-18T14:08:14;25.27;;;22.60;;
54899;SDS011;40801;41.924;25.562;2022-12-18T14:10:41;20.02;;;18.23;;
54899;SDS011;40801;41.924;25.562;2022-12-18T14:13:09;20.92;;;18.77;;
54899;SDS011;40801;41.924;25.562;2022-12-18T14:15:39;16.95;;;15.23;;
54899;SDS011;40801;41.924;25.562;2022-12-18T14:20:43;19.85;;;17.92;;
54899;SDS011;40801;41.924;25.562;2022-12-18T14:26:01;22.40;;;20.10;;
54899;SDS011;40801;41.924;25.562;2022-12-18T14:28:28;24.52;;;21.70;;
54899;SDS011;40801;41.924;25.562;2022-12-18T14:30:54;26.88;;;23.67;;
54899;SDS011;40801;41.924;25.562;2022-12-18T14:33:22;19.58;;;17.67;;
54899;SDS011;40801;41.924;25.562;2022-12-18T14:35:55;22.70;;;20.45;;
54899;SDS011;40801;41.924;25.562;2022-12-18T14:38:35;19.90;;;18.05;;
54899;SDS011;40801;41.924;25.562;2022-12-18T14:41:03;24.05;;;21.45;;
54899;SDS011;40801;41.924;25.562;2022-12-18T14:43:43;23.33;;;21.08;;
54899;SDS011;40801;41.924;25.562;2022-12-18T14:48:58;25.55;;;22.88;;
54899;SDS011;40801;41.924;25.562;2022-12-18T14:51:25;26.63;;;23.95;;
54899;SDS011;40801;41.924;25.562;2022-12-18T14:58:49;35.45;;;31.70;;
54899;SDS011;40801;41.924;25.562;2022-12-18T15:03:52;25.95;;;23.13;;
54899;SDS011;40801;41.924;25.562;2022-12-18T15:06:30;25.77;;;23.35;;
54899;SDS011;40801;41.924;25.562;2022-12-18T15:09:02;25.65;;;23.10;;
54899;SDS011;40801;41.924;25.562;2022-12-18T15:11:46;29.58;;;26.75;;
54899;SDS011;40801;41.924;25.562;2022-12-18T15:17:17;31.23;;;28.25;;
54899;SDS011;40801;41.924;25.562;2022-12-18T15:19:45;24.15;;;21.73;;
54899;SDS011;40801;41.924;25.562;2022-12-18T15:22:25;21.92;;;19.88;;
54899;SDS011;40801;41.924;25.562;2022-12-18T15:24:52;31.45;;;28.20;;
54899;SDS011;40801;41.924;25.562;2022-12-18T15:27:29;35.83;;;32.33;;
54899;SDS011;40801;41.924;25.562;2022-12-18T15:30:00;31.67;;;28.75;;
54899;SDS011;40801;41.924;25.562;2022-12-18T15:32:37;32.42;;;29.17;;
54899;SDS011;40801;41.924;25.562;2022-12-18T15:37:36;31.77;;;27.77;;
54899;SDS011;40801;41.924;25.562;2022-12-18T15:40:04;30.42;;;27.20;;
54899;SDS011;40801;41.924;25.562;2022-12-18T15:42:30;20.60;;;18.60;;
54899;SDS011;40801;41.924;25.562;2022-12-18T15:45:14;22.48;;;20.20;;
54899;SDS011;40801;41.924;25.562;2022-12-18T15:47:40;24.20;;;21.90;;
54899;SDS011;40801;41.924;25.562;2022-12-18T15:50:08;20.05;;;18.15;;
54899;SDS011;40801;41.924;25.562;2022-12-18T15:52:44;24.80;;;21.73;;
54899;SDS011;40801;41.924;25.562;2022-12-18T15:55:12;20.77;;;18.52;;
54899;SDS011;40801;41.924;25.562;2022-12-18T15:57:57;30.15;;;27.30;;
54899;SDS011;40801;41.924;25.562;2022-12-18T16:00:23;29.80;;;23.50;;
54899;SDS011;40801;41.924;25.562;2022-12-18T16:02:49;29.17;;;24.92;;
54899;SDS011;40801;41.924;25.562;2022-12-18T16:05:15;24.50;;;21.90;;
54899;SDS011;40801;41.924;25.562;2022-12-18T16:07:42;29.98;;;26.75;;
54899;SDS011;40801;41.924;25.562;2022-12-18T16:10:08;26.13;;;23.52;;
54899;SDS011;40801;41.924;25.562;2022-12-18T16:12:34;25.67;;;22.65;;
54899;SDS011;40801;41.924;25.562;2022-12-18T16:15:00;19.05;;;17.13;;
54899;SDS011;40801;41.924;25.562;2022-12-18T16:17:26;19.15;;;17.30;;
54899;SDS011;40801;41.924;25.562;2022-12-18T16:19:51;21.25;;;19.15;;
54899;SDS011;40801;41.924;25.562;2022-12-18T16:22:18;20.50;;;18.42;;
54899;SDS011;40801;41.924;25.562;2022-12-18T16:24:46;18.25;;;16.55;;
54899;SDS011;40801;41.924;25.562;2022-12-18T16:27:11;16.98;;;15.38;;
54899;SDS011;40801;41.924;25.562;2022-12-18T16:29:37;26.20;;;22.33;;
54899;SDS011;40801;41.924;25.562;2022-12-18T16:32:02;27.15;;;24.27;;
54899;SDS011;40801;41.924;25.562;2022-12-18T16:34:32;26.00;;;23.20;;
54899;SDS011;40801;41.924;25.562;2022-12-18T16:37:00;24.23;;;21.83;;
54899;SDS011;40801;41.924;25.562;2022-12-18T16:39:27;19.20;;;17.35;;
54899;SDS011;40801;41.924;25.562;2022-12-18T16:41:53;19.10;;;17.20;;
54899;SDS011;40801;41.924;25.562;2022-12-18T16:44:19;22.23;;;20.13;;